Time;durP1;ratioP1;P1;durP2;ratioP2;P2;SDS_P1;SDS_P2;PMS_P1;PMS_P2;Temp;Humidity;BMP_temperature;BMP_pressure;BME280_temperature;BME280_humidity;BME280_pressure;Samples;Min_cycle;Max_cycle;Signal;HPM_P1;HPM_P2
2022/12/09 00:01:24;;;;;;;5.13;4.72;;;;;;;0.73;100.00;97511.00;15294997;19;20025;-81
2022/12/09 00:06:51;;;;;;;5.03;4.63;;;;;;;0.73;100.00;97504.84;15295517;19;20855;-81
2022/12/09 00:12:16;;;;;;;5.60;5.10;;;;;;;0.71;100.00;97504.13;15305848;19;20054;-81
2022/12/09 00:17:40;;;;;;;5.35;4.95;;;;;;;0.71;100.00;97506.78;15314564;19;20017;-81
2022/12/09 00:23:08;;;;;;;5.35;4.95;;;;;;;0.72;100.00;97503.16;15317694;19;20015;-81
2022/12/09 00:28:32;;;;;;;5.82;5.32;;;;;;;0.73;100.00;97504.84;15318614;19;20021;-81
2022/12/09 00:33:57;;;;;;;5.55;5.05;;;;;;;0.70;100.00;97498.00;15325738;19;20010;-80
2022/12/09 00:39:24;;;;;;;5.75;5.25;;;;;;;0.68;100.00;97496.41;15317499;19;20062;-81
2022/12/09 00:44:49;;;;;;;5.90;5.40;;;;;;;0.68;100.00;97497.28;15310592;19;20093;-80
2022/12/09 00:50:13;;;;;;;6.53;5.93;;;;;;;0.68;100.00;97496.41;15304527;19;20034;-81
2022/12/09 00:55:41;;;;;;;6.35;5.82;;;;;;;0.66;100.00;97488.59;15310158;19;20006;-81
2022/12/09 01:01:13;;;;;;;6.70;6.10;;;;;;;0.64;100.00;97500.28;15315912;19;20011;-79
2022/12/09 01:06:37;;;;;;;7.38;6.68;;;;;;;0.61;100.00;97494.25;15350384;19;20472;-81
2022/12/09 01:12:05;;;;;;;8.05;7.25;;;;;;;0.56;100.00;97491.13;15301164;19;20368;-80
2022/12/09 01:17:31;;;;;;;8.35;7.55;;;;;;;0.56;100.00;97499.06;15306696;19;20537;-81
2022/12/09 01:22:57;;;;;;;7.97;7.28;;;;;;;0.57;100.00;97505.22;15306182;19;20013;-79
2022/12/09 01:28:25;;;;;;;8.48;7.68;;;;;;;0.56;100.00;97509.66;15304520;19;20027;-81
2022/12/09 01:33:51;;;;;;;8.55;7.75;;;;;;;0.56;100.00;97520.28;15304663;19;20018;-81
2022/12/09 01:39:16;;;;;;;8.93;8.02;;;;;;;0.54;100.00;97516.06;15303918;19;20769;-82
2022/12/09 01:44:44;;;;;;;9.35;8.45;;;;;;;0.56;100.00;97516.78;15302472;19;20012;-81
2022/12/09 01:50:12;;;;;;;8.70;7.90;;;;;;;0.55;100.00;97513.28;15303879;19;20049;-82
2022/12/09 01:55:38;;;;;;;8.52;7.72;;;;;;;0.57;100.00;97505.22;15302927;19;20020;-82
2022/12/09 02:01:05;;;;;;;8.95;8.07;;;;;;;0.55;100.00;97497.38;15300217;19;20024;-82
2022/12/09 02:06:31;;;;;;;10.27;9.27;;;;;;;0.49;100.00;97487.28;15301500;19;20016;-82
2022/12/09 02:12:13;;;;;;;10.43;9.32;;;;;;;0.45;100.00;97477.88;15297017;19;20027;-83
2022/12/09 02:17:48;;;;;;;11.02;9.90;;;;;;;0.44;100.00;97484.13;15296330;19;20010;-82
2022/12/09 02:23:18;;;;;;;10.73;9.65;;;;;;;0.44;100.00;97484.13;15300003;19;20010;-82
2022/12/09 02:28:58;;;;;;;10.90;9.80;;;;;;;0.44;100.00;97494.72;15295224;19;20027;-82
2022/12/09 02:34:33;;;;;;;10.95;9.73;;;;;;;0.45;100.00;97480.53;14778904;19;9999797;-81
2022/12/09 02:40:02;;;;;;;10.07;9.05;;;;;;;0.41;100.00;97479.09;15286728;19;20010;-82
2022/12/09 02:45:30;;;;;;;10.55;9.45;;;;;;;0.36;100.00;97483.91;15287094;19;20027;-82
2022/12/09 02:51:01;;;;;;;9.68;8.70;;;;;;;0.34;100.00;97469.94;15281949;19;20074;-82
2022/12/09 02:56:29;;;;;;;9.38;8.48;;;;;;;0.29;100.00;97473.78;15282591;19;20479;-82
2022/12/09 03:02:24;;;;;;;9.68;8.77;;;;;;;0.18;100.00;97467.66;15282538;19;20010;-83
2022/12/09 03:08:04;;;;;;;11.02;9.88;;;;;;;0.10;100.00;97468.22;15287403;19;20039;-81
2022/12/09 03:13:42;;;;;;;12.73;11.43;;;;;;;0.05;100.00;97470.41;15289293;19;20074;-82
2022/12/09 03:19:11;;;;;;;13.50;12.10;;;;;;;0.02;100.00;97468.00;15288094;19;20483;-82
2022/12/09 03:24:45;;;;;;;14.10;12.38;;;;;;;0.01;100.00;97469.78;15285016;19;20698;-82
2022/12/09 03:30:12;;;;;;;14.98;12.70;;;;;;;-0.02;100.00;97470.03;15289511;19;20535;-81
2022/12/09 03:35:43;;;;;;;15.77;12.88;;;;;;;-0.05;100.00;97468.44;15284522;19;20023;-81
2022/12/09 03:41:18;;;;;;;13.82;12.00;;;;;;;-0.08;100.00;97467.84;15288782;19;20118;-82
2022/12/09 03:46:44;;;;;;;14.40;12.48;;;;;;;-0.13;100.00;97460.25;15298148;19;20021;-82
2022/12/09 03:52:13;;;;;;;13.40;11.55;;;;;;;-0.11;100.00;97450.41;15294867;19;20858;-82
2022/12/09 03:57:44;;;;;;;13.73;12.23;;;;;;;-0.10;100.00;97460.03;15304841;19;20022;-82
2022/12/09 04:03:09;;;;;;;13.15;11.75;;;;;;;-0.06;100.00;97453.53;15316003;19;20014;-82
2022/12/09 04:08:34;;;;;;;12.55;10.60;;;;;;;-0.07;100.00;97459.81;15344830;19;20003;-81
2022/12/09 04:14:01;;;;;;;10.23;9.23;;;;;;;-0.05;100.00;97457.03;15307781;19;20015;-80
2022/12/09 04:19:33;;;;;;;12.07;10.88;;;;;;;-0.04;100.00;97446.31;15298015;19;20014;-79
2022/12/09 04:24:57;;;;;;;11.65;10.45;;;;;;;-0.01;100.00;97443.44;15291323;19;20006;-79
2022/12/09 04:30:25;;;;;;;12.32;11.13;;;;;;;-0.02;100.00;97436.44;15297334;19;20096;-80
2022/12/09 04:35:49;;;;;;;13.55;12.15;;;;;;;-0.03;100.00;97449.81;15297947;19;20015;-80
2022/12/09 04:41:15;;;;;;;13.27;11.93;;;;;;;-0.01;100.00;97437.31;15299616;19;20007;-80
2022/12/09 04:46:42;;;;;;;13.70;12.23;;;;;;;-0.02;100.00;97446.22;15304642;19;20102;-80
2022/12/09 04:52:07;;;;;;;65.25;12.05;;;;;;;-0.06;100.00;97442.94;15292748;19;20299;-81
2022/12/09 04:57:31;;;;;;;12.30;11.00;;;;;;;-0.06;100.00;97453.53;15285080;19;20021;-79
2022/12/09 05:02:59;;;;;;;13.32;11.93;;;;;;;-0.04;100.00;97448.97;15300423;19;20018;-80
2022/12/09 05:08:23;;;;;;;13.80;12.10;;;;;;;-0.02;100.00;97448.84;15299533;19;20019;-81
2022/12/09 05:13:49;;;;;;;13.38;11.98;;;;;;;-0.01;100.00;97453.19;15301670;19;20018;-81
2022/12/09 05:19:16;;;;;;;14.77;12.27;;;;;;;0.03;100.00;97454.63;15300404;19;20018;-80
2022/12/09 05:24:42;;;;;;;12.95;11.60;;;;;;;0.04;100.00;97455.47;15299678;19;20015;-80
2022/12/09 05:30:09;;;;;;;12.95;11.57;;;;;;;0.05;100.00;97462.47;15290755;19;20006;-80
2022/12/09 05:35:37;;;;;;;14.25;12.75;;;;;;;0.03;100.00;97456.44;15296037;19;20610;-80
2022/12/09 05:41:10;;;;;;;12.85;10.98;;;;;;;0.05;100.00;97458.00;15290756;19;20497;-79
2022/12/09 05:46:35;;;;;;;13.35;11.95;;;;;;;0.05;100.00;97455.34;15292623;19;20010;-80
2022/12/09 05:52:02;;;;;;;14.57;12.80;;;;;;;0.09;100.00;97454.16;15286927;19;20411;-80
2022/12/09 05:57:27;;;;;;;13.98;12.48;;;;;;;0.11;100.00;97456.69;15286233;19;20029;-79
2022/12/09 06:02:51;;;;;;;13.65;11.82;;;;;;;0.11;100.00;97446.94;15283596;19;20017;-80
2022/12/09 06:08:19;;;;;;;14.50;12.60;;;;;;;0.13;100.00;97446.81;15285627;19;20524;-79
2022/12/09 06:13:44;;;;;;;14.65;12.85;;;;;;;0.13;100.00;97441.53;15286674;19;20049;-80
2022/12/09 06:19:08;;;;;;;13.50;12.07;;;;;;;0.14;100.00;97441.38;15288565;19;20016;-79
2022/12/09 06:24:36;;;;;;;14.80;13.10;;;;;;;0.17;100.00;97439.47;15290310;19;20074;-80
2022/12/09 06:30:01;;;;;;;16.63;14.05;;;;;;;0.18;100.00;97439.34;15287524;19;20018;-80
2022/12/09 06:35:27;;;;;;;15.43;13.82;;;;;;;0.19;100.00;97443.66;15283808;19;20024;-80
2022/12/09 06:40:55;;;;;;;15.40;12.77;;;;;;;0.20;100.00;97431.28;15286927;19;20484;-81
2022/12/09 06:46:14;;;;;;;13.65;12.20;;;;;;;0.20;100.00;97428.63;15288519;19;20613;-81
2022/12/09 06:51:40;;;;;;;13.57;12.05;;;;;;;0.22;100.00;97435.50;15286841;19;20010;-79
2022/12/09 06:57:07;;;;;;;13.65;11.40;;;;;;;0.23;100.00;97434.53;15284631;19;20025;-80
2022/12/09 07:02:38;;;;;;;13.52;12.07;;;;;;;0.24;100.00;97435.38;15286269;19;20017;-81
2022/12/09 07:08:02;;;;;;;13.30;11.50;;;;;;;0.22;100.00;97435.50;15282754;19;20019;-81
2022/12/09 07:13:30;;;;;;;13.43;11.52;;;;;;;0.20;100.00;97434.75;15300949;19;19999;-79
2022/12/09 07:19:01;;;;;;;12.95;11.65;;;;;;;0.22;100.00;97443.44;15335606;19;20018;-80
2022/12/09 07:24:26;;;;;;;13.55;11.35;;;;;;;0.23;100.00;97449.59;15274734;19;20018;-81
2022/12/09 07:29:54;;;;;;;13.32;12.02;;;;;;;0.25;100.00;97450.28;15294506;19;20059;-80
2022/12/09 07:35:19;;;;;;;12.95;11.10;;;;;;;0.26;100.00;97438.75;15296200;19;20014;-80
2022/12/09 07:40:43;;;;;;;11.43;10.23;;;;;;;0.26;100.00;97434.28;15290361;19;20022;-80
2022/12/09 07:46:10;;;;;;;11.25;10.10;;;;;;;0.27;100.00;97441.28;15299855;19;20014;-80
2022/12/09 07:51:35;;;;;;;11.73;10.45;;;;;;;0.29;100.00;97428.72;15291596;19;20048;-81
2022/12/09 07:57:00;;;;;;;10.82;9.77;;;;;;;0.33;100.00;97436.44;15291482;19;20021;-83
2022/12/09 08:02:34;;;;;;;11.15;9.52;;;;;;;0.32;100.00;97437.41;15292112;19;20025;-82
2022/12/09 08:07:59;;;;;;;10.93;9.85;;;;;;;0.35;100.00;97437.19;15299062;19;20014;-81
2022/12/09 08:13:24;;;;;;;9.73;8.73;;;;;;;0.38;100.00;97442.25;15299079;19;20073;-82
2022/12/09 08:18:52;;;;;;;9.52;8.52;;;;;;;0.38;100.00;97442.25;15299549;19;20010;-81
2022/12/09 08:24:20;;;;;;;9.05;7.85;;;;;;;0.43;100.00;97442.69;15294063;19;20054;-80
2022/12/09 08:29:45;;;;;;;6.70;6.10;;;;;;;0.38;100.00;97424.53;15293685;19;20367;-80
2022/12/09 08:35:14;;;;;;;6.57;5.97;;;;;;;0.40;100.00;97413.81;15292612;19;21283;-80
2022/12/09 08:40:39;;;;;;;6.35;5.75;;;;;;;0.43;100.00;97409.13;15291663;19;20035;-79
2022/12/09 08:46:08;;;;;;;7.45;6.20;;;;;;;0.43;100.00;97403.81;15293168;19;20381;-80
2022/12/09 08:51:36;;;;;;;8.13;7.32;;;;;;;0.51;100.00;97399.69;15298596;19;20480;-82
2022/12/09 08:57:03;;;;;;;8.30;7.50;;;;;;;0.55;100.00;97401.97;15296641;19;20021;-81
2022/12/09 09:02:34;;;;;;;9.27;8.38;;;;;;;0.60;100.00;97396.31;15292975;19;20014;-81
2022/12/09 09:08:01;;;;;;;7.20;6.50;;;;;;;0.56;100.00;97382.47;15300799;19;20014;-81
2022/12/09 09:13:26;;;;;;;7.22;6.53;;;;;;;0.62;100.00;97373.16;15300913;19;20007;-82
2022/12/09 09:18:51;;;;;;;7.30;6.60;;;;;;;0.60;100.00;97368.00;15290608;19;20014;-82
2022/12/09 09:24:23;;;;;;;7.70;6.90;;;;;;;0.60;100.00;97383.03;15298459;19;20082;-82
2022/12/09 09:29:48;;;;;;;7.47;6.78;;;;;;;0.60;100.00;97373.31;15297086;19;20019;-81
2022/12/09 09:35:13;;;;;;;7.63;6.93;;;;;;;0.61;100.00;97368.84;15292161;19;20808;-84
2022/12/09 09:40:43;;;;;;;9.52;8.52;;;;;;;0.64;100.00;97365.13;15291193;19;20101;-82
2022/12/09 09:46:08;;;;;;;9.25;8.35;;;;;;;0.67;100.00;97355.09;15290116;19;20066;-82
2022/12/09 09:51:35;;;;;;;9.63;8.63;;;;;;;0.67;100.00;97357.75;15285474;19;20098;-81
2022/12/09 09:57:08;;;;;;;9.43;8.52;;;;;;;0.68;100.00;97355.91;15296018;19;20016;-82
2022/12/09 10:02:54;;;;;;;10.77;9.70;;;;;;;0.73;100.00;97351.09;15292269;19;20115;-83
2022/12/09 10:08:32;;;;;;;12.77;11.48;;;;;;;0.76;100.00;97350.84;15289227;19;20108;-81
2022/12/09 10:14:05;;;;;;;15.60;13.32;;;;;;;0.76;100.00;97338.44;15289060;19;20027;-81
2022/12/09 10:19:33;;;;;;;14.77;13.18;;;;;;;0.75;100.00;97338.56;15290212;19;20010;-82
2022/12/09 10:25:00;;;;;;;15.98;14.23;;;;;;;0.78;100.00;97333.00;15305924;19;20002;-80
2022/12/09 10:30:29;;;;;;;17.25;15.45;;;;;;;0.85;100.00;97326.22;15329750;19;20017;-82
2022/12/09 10:36:01;;;;;;;18.55;16.27;;;;;;;0.89;100.00;97332.94;15288691;19;20021;-82
2022/12/09 10:47:33;;;;;;;16.70;14.85;;;;;;;1.04;100.00;97332.63;15286594;19;20017;-82
2022/12/09 10:52:58;;;;;;;18.25;16.35;;;;;;;1.03;100.00;97320.34;15283780;19;20793;-83
2022/12/09 10:58:26;;;;;;;19.00;16.85;;;;;;;1.03;100.00;97312.38;15288626;19;20015;-81
2022/12/09 11:03:55;;;;;;;19.17;17.27;;;;;;;1.06;100.00;97304.19;15288080;19;20021;-82
2022/12/09 11:09:29;;;;;;;18.85;16.85;;;;;;;1.04;100.00;97291.06;15299958;19;20105;-80
2022/12/09 11:14:56;;;;;;;15.77;14.20;;;;;;;1.08;100.00;97288.97;15293764;19;20113;-81
2022/12/09 11:20:28;;;;;;;15.65;14.15;;;;;;;1.09;100.00;97293.31;15290373;19;20019;-81
2022/12/09 11:25:56;;;;;;;15.30;13.70;;;;;;;1.10;100.00;97299.47;15287507;19;20751;-82
2022/12/09 11:31:24;;;;;;;14.60;13.15;;;;;;;1.11;100.00;97295.84;15286908;19;20360;-82
2022/12/09 11:36:56;;;;;;;14.55;13.13;;;;;;;1.15;100.00;97294.63;15292140;19;20050;-82
2022/12/09 11:42:25;;;;;;;15.23;13.63;;;;;;;1.18;100.00;97295.19;15292693;19;20015;-81
2022/12/09 11:47:52;;;;;;;14.40;12.90;;;;;;;1.25;100.00;97289.34;15291034;19;20278;-81
2022/12/09 11:53:41;;;;;;;14.18;12.88;;;;;;;1.30;100.00;97293.28;15293855;19;20045;-80
2022/12/09 11:59:10;;;;;;;15.20;13.70;;;;;;;1.41;100.00;97292.38;15300496;19;20096;-81
2022/12/09 12:04:40;;;;;;;15.75;14.05;;;;;;;1.50;100.00;97282.81;15290147;19;20017;-81
2022/12/09 12:10:18;;;;;;;17.38;15.43;;;;;;;1.54;100.00;97271.78;15299133;19;20014;-80
2022/12/09 12:15:51;;;;;;;22.88;17.15;;;;;;;1.59;100.00;97263.41;15330190;19;20010;-82
2022/12/09 12:21:35;;;;;;;32.10;20.58;;;;;;;1.53;100.00;97261.28;15301706;19;20013;-81
2022/12/09 12:27:14;;;;;;;27.65;17.67;;;;;;;1.59;100.00;97251.97;15296699;19;20017;-82
2022/12/09 12:32:50;;;;;;;26.08;17.60;;;;;;;1.62;100.00;97243.72;15292971;19;20015;-82
2022/12/09 12:38:50;;;;;;;22.75;16.23;;;;;;;1.64;100.00;97244.44;15295299;19;20025;-81
2022/12/09 12:50:32;;;;;;;11.70;9.60;;;;;;;1.71;100.00;97229.63;15295638;19;20015;-81
2022/12/09 12:56:01;;;;;;;10.20;9.20;;;;;;;1.72;100.00;97228.66;15296836;19;20081;-81
2022/12/09 13:01:41;;;;;;;8.90;8.05;;;;;;;1.76;100.00;97221.28;15290100;19;20077;-82
2022/12/09 13:07:11;;;;;;;9.80;8.90;;;;;;;1.74;100.00;97218.75;15297247;19;20015;-81
2022/12/09 13:12:55;;;;;;;10.02;9.02;;;;;;;1.72;100.00;97217.22;15296970;19;20090;-81
2022/12/09 13:18:37;;;;;;;10.40;9.45;;;;;;;1.69;100.00;97215.69;15292126;19;20031;-81
2022/12/09 13:24:12;;;;;;;10.30;9.35;;;;;;;1.63;100.00;97210.88;15296560;19;20073;-82
2022/12/09 13:29:43;;;;;;;10.18;9.18;;;;;;;1.60;100.00;97216.47;15292854;19;20015;-81
2022/12/09 13:35:20;;;;;;;9.55;8.63;;;;;;;1.50;100.00;97219.09;15292504;19;20017;-79
2022/12/09 13:40:45;;;;;;;10.57;9.55;;;;;;;1.47;100.00;97225.50;15352055;19;20025;-81
2022/12/09 13:46:10;;;;;;;10.43;9.32;;;;;;;1.39;100.00;97217.38;15300576;19;20022;-80
2022/12/09 13:51:47;;;;;;;10.80;9.75;;;;;;;1.33;100.00;97212.59;15295206;19;20020;-80
2022/12/09 13:57:21;;;;;;;11.60;10.50;;;;;;;1.33;100.00;97216.09;15293092;19;20086;-80
2022/12/09 14:02:55;;;;;;;11.73;10.63;;;;;;;1.28;100.00;97207.72;15291688;19;20050;-83
2022/12/09 14:08:30;;;;;;;12.73;11.43;;;;;;;1.25;100.00;97207.09;15289861;19;20420;-81
2022/12/09 14:14:30;;;;;;;13.32;11.82;;;;;;;1.18;100.00;97197.03;15293582;19;20015;-83
2022/12/09 14:20:01;;;;;;;13.95;12.40;;;;;;;1.15;100.00;97197.28;15292134;19;20035;-82
2022/12/09 14:25:55;;;;;;;14.73;13.23;;;;;;;1.13;100.00;97198.41;15293876;19;20020;-82
2022/12/09 14:31:20;;;;;;;16.20;14.50;;;;;;;1.13;100.00;97212.50;15288693;19;20018;-83
2022/12/09 14:36:53;;;;;;;21.63;19.35;;;;;;;1.10;100.00;97220.75;15298412;19;20028;-81
2022/12/09 14:42:28;;;;;;;33.25;29.45;;;;;;;1.08;100.00;97220.03;15316693;19;20010;-82
2022/12/09 14:47:55;;;;;;;18.20;16.30;;;;;;;1.01;100.00;97225.00;15290222;19;20018;-81
2022/12/09 14:53:25;;;;;;;22.08;19.10;;;;;;;0.97;100.00;97225.41;15293657;19;20010;-82
2022/12/09 14:58:55;;;;;;;18.98;16.77;;;;;;;0.95;100.00;97224.69;15287338;19;20368;-82
2022/12/09 15:04:26;;;;;;;17.83;15.95;;;;;;;0.89;100.00;97224.22;15291331;19;20166;-83
2022/12/09 15:10:02;;;;;;;20.63;17.10;;;;;;;0.86;100.00;97216.56;15293137;19;20013;-82
2022/12/09 15:15:35;;;;;;;44.70;35.63;;;;;;;0.82;100.00;97223.06;15294969;19;20291;-83
2022/12/09 15:21:03;;;;;;;22.08;17.75;;;;;;;0.80;100.00;97227.66;15283330;19;20029;-82
2022/12/09 15:26:31;;;;;;;21.40;19.10;;;;;;;0.78;100.00;97219.00;15290076;19;20031;-82
2022/12/09 15:32:00;;;;;;;22.88;20.40;;;;;;;0.71;100.00;97213.38;15291244;19;20018;-82
2022/12/09 15:37:30;;;;;;;135.32;117.85;;;;;;;0.70;100.00;97221.47;15292524;19;20011;-81
2022/12/09 15:42:59;;;;;;;24.30;21.60;;;;;;;0.66;100.00;97222.66;15312220;19;20050;-82
2022/12/09 15:48:33;;;;;;;28.33;25.35;;;;;;;0.62;100.00;97227.41;15329677;19;20665;-83
2022/12/09 15:54:04;;;;;;;22.52;20.13;;;;;;;0.58;100.00;97224.16;15313696;19;20018;-82
2022/12/09 15:59:32;;;;;;;22.67;20.27;;;;;;;0.61;100.00;97231.00;15304104;19;20078;-82
2022/12/09 16:05:00;;;;;;;22.75;20.23;;;;;;;0.59;100.00;97233.81;15314211;19;20015;-83
2022/12/09 16:10:26;;;;;;;21.42;19.13;;;;;;;0.58;100.00;97226.81;15302877;19;20479;-82
2022/12/09 16:15:59;;;;;;;23.70;21.02;;;;;;;0.56;100.00;97241.16;15301848;19;20014;-82
2022/12/09 16:21:34;;;;;;;25.27;22.67;;;;;;;0.57;100.00;97245.50;15297880;19;20085;-81
2022/12/09 16:27:01;;;;;;;26.33;22.65;;;;;;;0.57;100.00;97246.34;15301326;19;20007;-81
2022/12/09 16:32:30;;;;;;;26.45;22.73;;;;;;;0.55;100.00;97239.50;15303653;19;20015;-82
2022/12/09 16:38:22;;;;;;;28.27;24.63;;;;;;;0.55;100.00;97247.44;15298987;19;20015;-82
2022/12/09 16:43:56;;;;;;;27.88;23.02;;;;;;;0.53;100.00;97242.25;15299231;19;20085;-83
2022/12/09 16:49:22;;;;;;;29.10;25.00;;;;;;;0.51;100.00;97249.50;15322903;19;20010;-80
2022/12/09 16:54:51;;;;;;;24.35;20.48;;;;;;;0.51;100.00;97252.16;15322927;19;20755;-82
2022/12/09 17:00:17;;;;;;;27.63;21.80;;;;;;;0.51;100.00;97254.81;15291959;19;20018;-83
2022/12/09 17:05:44;;;;;;;25.75;21.80;;;;;;;0.51;100.00;97241.56;15292861;19;20011;-80
2022/12/09 17:11:11;;;;;;;27.35;21.50;;;;;;;0.49;100.00;97243.50;15293489;19;20034;-80
2022/12/09 17:16:37;;;;;;;25.67;21.17;;;;;;;0.48;100.00;97239.16;15294173;19;20049;-84
2022/12/09 17:22:05;;;;;;;25.92;23.08;;;;;;;0.48;100.00;97239.16;15286183;19;20086;-84
2022/12/09 17:27:32;;;;;;;26.67;23.73;;;;;;;0.51;100.00;97251.28;15293186;19;20014;-84
2022/12/09 17:32:57;;;;;;;29.25;25.77;;;;;;;0.50;100.00;97239.00;15299963;19;20102;-85
2022/12/09 17:38:22;;;;;;;27.88;24.25;;;;;;;0.51;100.00;97252.16;15299519;19;20375;-84
2022/12/09 17:43:50;;;;;;;33.00;28.83;;;;;;;0.52;100.00;97256.50;15297665;19;20015;-83
2022/12/09 17:49:15;;;;;;;28.17;25.15;;;;;;;0.52;100.00;97258.28;15295632;19;20014;-81
2022/12/09 17:54:41;;;;;;;29.05;24.70;;;;;;;0.51;100.00;97262.75;15294240;19;20082;-84
2022/12/09 18:00:17;;;;;;;32.05;26.90;;;;;;;0.50;100.00;97274.31;15292938;19;20018;-80
2022/12/09 18:05:42;;;;;;;51.63;40.38;;;;;;;0.49;100.00;97274.44;15298311;19;20010;-81
2022/12/09 18:11:10;;;;;;;41.08;36.40;;;;;;;0.47;100.00;97293.13;15292042;19;20010;-82
2022/12/09 18:16:38;;;;;;;44.70;35.25;;;;;;;0.43;100.00;97292.53;15293782;19;20002;-82
2022/12/09 18:22:03;;;;;;;42.55;32.15;;;;;;;0.41;100.00;97290.97;15290194;19;20490;-80
2022/12/09 18:27:28;;;;;;;53.22;40.83;;;;;;;0.41;100.00;97298.94;15288281;19;20018;-81
2022/12/09 18:32:50;;;;;;;29.73;25.02;;;;;;;0.38;100.00;97296.53;15300450;19;20018;-82
2022/12/09 18:38:15;;;;;;;26.33;22.27;;;;;;;0.36;100.00;97293.16;15305391;19;20018;-82
2022/12/09 18:43:42;;;;;;;28.75;23.63;;;;;;;0.32;100.00;97292.56;15304080;19;20808;-81
2022/12/09 18:49:12;;;;;;;26.48;22.05;;;;;;;0.32;100.00;97297.88;15304571;19;20101;-82
2022/12/09 18:54:37;;;;;;;25.02;22.20;;;;;;;0.29;100.00;97296.28;15303792;19;20018;-82
2022/12/09 19:00:09;;;;;;;28.08;23.15;;;;;;;0.28;100.00;97299.94;15299556;19;20018;-82
2022/12/09 19:05:41;;;;;;;26.83;23.23;;;;;;;0.28;100.00;97291.97;15303936;19;20019;-81
2022/12/09 19:11:05;;;;;;;25.02;22.33;;;;;;;0.29;100.00;97306.06;15296326;19;20381;-84
2022/12/09 19:16:31;;;;;;;26.90;22.60;;;;;;;0.28;100.00;97307.88;15298534;19;20027;-83
2022/12/09 19:22:03;;;;;;;27.83;24.23;;;;;;;0.28;100.00;97305.22;15301400;19;20017;-82
2022/12/09 19:27:28;;;;;;;25.45;22.65;;;;;;;0.32;100.00;97304.94;15317813;19;20031;-82
2022/12/09 19:32:52;;;;;;;24.92;22.17;;;;;;;0.35;100.00;97310.00;15325789;19;20010;-82
2022/12/09 19:38:19;;;;;;;28.35;23.30;;;;;;;0.31;100.00;97309.44;15322502;19;20019;-82
2022/12/09 19:43:46;;;;;;;27.33;22.45;;;;;;;0.29;100.00;97317.47;15322738;19;20496;-82
2022/12/09 19:49:13;;;;;;;26.17;22.35;;;;;;;0.27;100.00;97319.44;15326036;19;20014;-81
2022/12/09 19:54:41;;;;;;;24.75;21.95;;;;;;;0.28;100.00;97320.25;15321235;19;20347;-83
2022/12/09 20:00:10;;;;;;;27.58;22.63;;;;;;;0.26;100.00;97320.41;15333730;19;20018;-83
2022/12/09 20:05:35;;;;;;;25.55;21.98;;;;;;;0.26;100.00;97317.75;15329937;19;20014;-81
2022/12/09 20:11:05;;;;;;;27.83;22.95;;;;;;;0.23;100.00;97323.28;15311056;19;20018;-81
2022/12/09 20:16:31;;;;;;;25.90;22.38;;;;;;;0.21;100.00;97324.38;15314607;19;20007;-81
2022/12/09 20:21:57;;;;;;;25.40;21.83;;;;;;;0.20;100.00;97318.22;15302391;19;20014;-82
2022/12/09 20:27:24;;;;;;;27.90;23.08;;;;;;;0.20;100.00;97312.09;15301143;19;20320;-82
2022/12/09 20:32:51;;;;;;;26.35;22.63;;;;;;;0.20;100.00;97323.53;15303979;19;20070;-81
2022/12/09 20:38:16;;;;;;;26.30;22.30;;;;;;;0.20;100.00;97323.53;15295782;19;20336;-81
2022/12/09 20:43:49;;;;;;;26.10;22.15;;;;;;;0.19;100.00;97327.13;15301208;19;20017;-80
2022/12/09 20:49:14;;;;;;;27.30;22.83;;;;;;;0.19;100.00;97331.59;15300105;19;20367;-81
2022/12/09 20:54:39;;;;;;;28.48;23.55;;;;;;;0.20;100.00;97331.47;15299174;19;20018;-80
2022/12/09 21:00:06;;;;;;;28.35;22.17;;;;;;;0.20;100.00;97334.13;15302212;19;20018;-82
2022/12/09 21:05:32;;;;;;;27.05;22.67;;;;;;;0.21;100.00;97324.38;15308246;19;20090;-83
2022/12/09 21:10:56;;;;;;;24.95;21.88;;;;;;;0.23;100.00;97336.53;15305502;19;20015;-82
2022/12/09 21:16:27;;;;;;;24.83;21.38;;;;;;;0.27;100.00;97330.03;15304591;19;20018;-81
2022/12/09 21:21:53;;;;;;;24.02;20.60;;;;;;;0.27;100.00;97337.97;15297317;19;20014;-81
2022/12/09 21:27:19;;;;;;;27.27;21.70;;;;;;;0.32;100.00;97347.34;15300127;19;20022;-82
2022/12/09 21:32:46;;;;;;;26.42;21.75;;;;;;;0.29;100.00;97341.31;15303890;19;20097;-81
2022/12/09 21:38:12;;;;;;;24.65;20.73;;;;;;;0.31;100.00;97349.16;15299359;19;20010;-81
2022/12/09 21:43:40;;;;;;;25.48;20.98;;;;;;;0.35;100.00;97350.59;15307249;19;20031;-81
2022/12/09 21:49:08;;;;;;;27.13;22.27;;;;;;;0.35;100.00;97349.75;15305835;19;20015;-82
2022/12/09 21:54:32;;;;;;;27.83;22.45;;;;;;;0.36;100.00;97349.63;15302623;19;20032;-81
2022/12/09 21:59:57;;;;;;;27.10;22.02;;;;;;;0.33;100.00;97351.69;15298949;19;20524;-83
2022/12/09 22:05:24;;;;;;;27.92;22.45;;;;;;;0.33;100.00;97357.84;15303356;19;20014;-82
2022/12/09 22:10:50;;;;;;;29.25;22.65;;;;;;;0.30;100.00;97355.41;15299810;19;20086;-82
2022/12/09 22:16:15;;;;;;;29.52;23.13;;;;;;;0.25;100.00;97360.22;15306643;19;20018;-82
2022/12/09 22:21:43;;;;;;;30.70;23.63;;;;;;;0.23;100.00;97362.19;15302372;19;20014;-82
2022/12/09 22:27:07;;;;;;;29.15;22.83;;;;;;;0.22;100.00;97363.97;15306075;19;20013;-82
2022/12/09 22:32:34;;;;;;;30.55;23.70;;;;;;;0.18;100.00;97367.81;15339924;19;20025;-82
2022/12/09 22:38:08;;;;;;;31.67;23.40;;;;;;;0.16;100.00;97364.47;15349411;19;20014;-82
2022/12/09 22:43:33;;;;;;;29.85;24.42;;;;;;;0.14;100.00;97366.41;15352009;19;20010;-83
2022/12/09 22:48:58;;;;;;;31.83;24.45;;;;;;;0.16;100.00;97372.44;15354890;19;20010;-82
2022/12/09 22:54:26;;;;;;;29.98;23.38;;;;;;;0.16;100.00;97367.13;15353805;19;20021;-82
2022/12/09 22:59:51;;;;;;;31.20;23.77;;;;;;;0.11;100.00;97364.84;15355633;19;20017;-82
2022/12/09 23:05:16;;;;;;;34.22;25.42;;;;;;;0.08;100.00;97370.38;15367868;19;20013;-82
2022/12/09 23:10:43;;;;;;;36.70;25.55;;;;;;;0.08;100.00;97383.63;15367431;19;20047;-81
2022/12/09 23:16:12;;;;;;;35.60;26.20;;;;;;;0.04;100.00;97382.16;15344535;19;20082;-80
2022/12/09 23:21:39;;;;;;;34.97;25.55;;;;;;;0.04;100.00;97387.47;15297754;19;20094;-81
2022/12/09 23:27:07;;;;;;;34.90;26.10;;;;;;;0.04;100.00;97386.63;15299718;19;20087;-81
2022/12/09 23:32:32;;;;;;;33.95;25.23;;;;;;;0.04;100.00;97391.94;15298313;19;20015;-83
2022/12/09 23:37:57;;;;;;;30.88;24.13;;;;;;;0.01;100.00;97397.47;15292805;19;20811;-82
2022/12/09 23:43:24;;;;;;;32.03;24.33;;;;;;;0.01;100.00;97398.28;15295178;19;20027;-81
2022/12/09 23:48:52;;;;;;;32.28;25.05;;;;;;;-0.02;100.00;97401.19;15292217;19;20464;-80
2022/12/09 23:54:18;;;;;;;31.45;25.52;;;;;;;-0.03;100.00;97392.41;15296125;19;20014;-82
2022/12/09 23:59:46;;;;;;;38.35;28.02;;;;;;;0.01;100.00;97397.47;15292837;19;20023;-84
